sensor_id;sensor_type;location;lat;lon;timestamp;pressure;altitude;pressure_sealevel;temperature;humidity
54459;BME280;40368;49.350;8.152;2023-08-30T00:00:00;995.3;;;21.03;54.91
54459;BME280;40368;49.350;8.152;2023-08-30T00:01:01;995.2;;;21.04;54.96
54459;BME280;40368;49.350;8.152;2023-08-30T00:02:00;995.2;;;21.02;54.58
54459;BME280;40368;49.350;8.152;2023-08-30T00:03:00;995.2;;;21.05;54.44
54459;BME280;40368;49.350;8.152;2023-08-30T00:04:00;995.3;;;21.08;54.16
54459;BME280;40368;49.350;8.152;2023-08-30T00:05:00;995.2;;;21.09;54.3
54459;BME280;40368;49.350;8.152;2023-08-30T00:06:02;995.3;;;21.12;54.18
54459;BME280;40368;49.350;8.152;2023-08-30T00:07:00;995.2;;;21.13;54.05
54459;BME280;40368;49.350;8.152;2023-08-30T00:08:00;995.2;;;21.14;54.2
54459;BME280;40368;49.350;8.152;2023-08-30T00:09:01;995.2;;;21.16;54.07
54459;BME280;40368;49.350;8.152;2023-08-30T00:10:00;995.2;;;21.19;53.98
54459;BME280;40368;49.350;8.152;2023-08-30T00:11:00;995.2;;;21.23;53.96
54459;BME280;40368;49.350;8.152;2023-08-30T00:12:01;995.2;;;21.23;53.92
54459;BME280;40368;49.350;8.152;2023-08-30T00:13:00;995.2;;;21.24;53.88
54459;BME280;40368;49.350;8.152;2023-08-30T00:14:02;995.2;;;21.26;53.75
54459;BME280;40368;49.350;8.152;2023-08-30T00:15:00;995.2;;;21.26;54.02
54459;BME280;40368;49.350;8.152;2023-08-30T00:16:00;995.2;;;21.22;53.81
54459;BME280;40368;49.350;8.152;2023-08-30T00:17:00;995.2;;;21.21;53.91
54459;BME280;40368;49.350;8.152;2023-08-30T00:18:00;995.2;;;21.23;53.8
54459;BME280;40368;49.350;8.152;2023-08-30T00:19:00;995.2;;;21.24;53.8
54459;BME280;40368;49.350;8.152;2023-08-30T00:20:01;995.2;;;21.26;53.75
54459;BME280;40368;49.350;8.152;2023-08-30T00:21:00;995.2;;;21.28;53.7
54459;BME280;40368;49.350;8.152;2023-08-30T00:22:00;995.1;;;21.3;53.66
54459;BME280;40368;49.350;8.152;2023-08-30T00:23:00;995.1;;;21.3;53.78
54459;BME280;40368;49.350;8.152;2023-08-30T00:24:00;995.1;;;21.3;53.74
54459;BME280;40368;49.350;8.152;2023-08-30T00:25:00;995.1;;;21.29;53.81
54459;BME280;40368;49.350;8.152;2023-08-30T00:26:00;995.1;;;21.28;53.64
54459;BME280;40368;49.350;8.152;2023-08-30T00:27:01;995.2;;;21.29;53.66
54459;BME280;40368;49.350;8.152;2023-08-30T00:28:00;995.2;;;21.3;53.61
54459;BME280;40368;49.350;8.152;2023-08-30T00:29:00;995.2;;;21.31;53.79
54459;BME280;40368;49.350;8.152;2023-08-30T00:30:00;995.2;;;21.28;53.75
54459;BME280;40368;49.350;8.152;2023-08-30T00:31:01;995.2;;;21.29;53.87
54459;BME280;40368;49.350;8.152;2023-08-30T00:32:00;995.1;;;21.28;54
54459;BME280;40368;49.350;8.152;2023-08-30T00:33:00;995.2;;;21.25;54.32
54459;BME280;40368;49.350;8.152;2023-08-30T00:34:00;995.2;;;21.22;54.09
54459;BME280;40368;49.350;8.152;2023-08-30T00:35:00;995.2;;;21.22;54.24
54459;BME280;40368;49.350;8.152;2023-08-30T00:36:01;995.2;;;21.2;54.15
54459;BME280;40368;49.350;8.152;2023-08-30T00:37:00;995.2;;;21.18;54.38
54459;BME280;40368;49.350;8.152;2023-08-30T00:38:00;995.2;;;21.16;54.37
54459;BME280;40368;49.350;8.152;2023-08-30T00:39:00;995.2;;;21.18;54.12
54459;BME280;40368;49.350;8.152;2023-08-30T00:40:00;995.2;;;21.19;54.13
54459;BME280;40368;49.350;8.152;2023-08-30T00:41:00;995.1;;;21.2;54.04
54459;BME280;40368;49.350;8.152;2023-08-30T00:42:01;995.2;;;21.21;54.14
54459;BME280;40368;49.350;8.152;2023-08-30T00:43:00;995.2;;;21.21;53.96
54459;BME280;40368;49.350;8.152;2023-08-30T00:44:00;995.2;;;21.2;54.31
54459;BME280;40368;49.350;8.152;2023-08-30T00:45:00;995.2;;;21.18;54.27
54459;BME280;40368;49.350;8.152;2023-08-30T00:46:00;995.1;;;21.19;54.3
54459;BME280;40368;49.350;8.152;2023-08-30T00:47:00;995.2;;;21.19;54.22
54459;BME280;40368;49.350;8.152;2023-08-30T00:48:01;995.1;;;21.19;54.35
54459;BME280;40368;49.350;8.152;2023-08-30T00:49:00;995.1;;;21.18;54.32
54459;BME280;40368;49.350;8.152;2023-08-30T00:50:01;995.1;;;21.18;54.43
54459;BME280;40368;49.350;8.152;2023-08-30T00:51:00;995.2;;;21.15;54.31
54459;BME280;40368;49.350;8.152;2023-08-30T00:52:01;995.1;;;21.14;54.35
54459;BME280;40368;49.350;8.152;2023-08-30T00:53:00;995.1;;;21.13;54.54
54459;BME280;40368;49.350;8.152;2023-08-30T00:54:00;995.1;;;21.11;54.46
54459;BME280;40368;49.350;8.152;2023-08-30T00:55:00;995.1;;;21.13;54.35
54459;BME280;40368;49.350;8.152;2023-08-30T00:56:00;995.1;;;21.1;54.74
54459;BME280;40368;49.350;8.152;2023-08-30T00:57:00;995.1;;;21.05;54.91
54459;BME280;40368;49.350;8.152;2023-08-30T00:58:00;995.1;;;21.05;54.66
54459;BME280;40368;49.350;8.152;2023-08-30T00:59:00;995.1;;;21.06;54.59
54459;BME280;40368;49.350;8.152;2023-08-30T01:00:00;995.1;;;21.06;54.86
54459;BME280;40368;49.350;8.152;2023-08-30T01:01:00;995;;;21.06;54.96
54459;BME280;40368;49.350;8.152;2023-08-30T01:01:59;995.1;;;21.06;55
54459;BME280;40368;49.350;8.152;2023-08-30T01:03:00;995.1;;;21.08;54.71
54459;BME280;40368;49.350;8.152;2023-08-30T01:04:01;995.1;;;21.07;54.96
54459;BME280;40368;49.350;8.152;2023-08-30T01:05:00;995;;;21.05;54.96
54459;BME280;40368;49.350;8.152;2023-08-30T01:06:01;995;;;21.01;55.26
54459;BME280;40368;49.350;8.152;2023-08-30T01:07:00;995.1;;;21;54.97
54459;BME280;40368;49.350;8.152;2023-08-30T01:08:00;995;;;21.03;54.81
54459;BME280;40368;49.350;8.152;2023-08-30T01:09:00;995;;;21.02;55.26
54459;BME280;40368;49.350;8.152;2023-08-30T01:10:00;995.1;;;21.03;54.93
54459;BME280;40368;49.350;8.152;2023-08-30T01:11:02;995.1;;;21.02;54.84
54459;BME280;40368;49.350;8.152;2023-08-30T01:12:01;995;;;21.05;54.66
54459;BME280;40368;49.350;8.152;2023-08-30T01:13:01;995.1;;;21.08;54.9
54459;BME280;40368;49.350;8.152;2023-08-30T01:14:01;995;;;21.07;54.75
54459;BME280;40368;49.350;8.152;2023-08-30T01:15:01;995;;;21.08;54.72
54459;BME280;40368;49.350;8.152;2023-08-30T01:16:00;995;;;21.06;54.92
54459;BME280;40368;49.350;8.152;2023-08-30T01:18:00;995;;;21.07;54.71
54459;BME280;40368;49.350;8.152;2023-08-30T01:19:00;995;;;21.06;55.06
54459;BME280;40368;49.350;8.152;2023-08-30T01:20:01;994.9;;;21.06;54.86
54459;BME280;40368;49.350;8.152;2023-08-30T01:21:00;995;;;21.06;54.88
54459;BME280;40368;49.350;8.152;2023-08-30T01:22:02;994.9;;;21.05;54.8
54459;BME280;40368;49.350;8.152;2023-08-30T01:23:02;994.9;;;21.05;54.85
54459;BME280;40368;49.350;8.152;2023-08-30T01:24:00;994.9;;;21.05;54.95
54459;BME280;40368;49.350;8.152;2023-08-30T01:25:03;994.9;;;21.04;55.02
54459;BME280;40368;49.350;8.152;2023-08-30T01:26:03;994.8;;;21.03;54.87
54459;BME280;40368;49.350;8.152;2023-08-30T01:27:05;994.8;;;21.05;54.63
54459;BME280;40368;49.350;8.152;2023-08-30T01:28:00;994.9;;;21.07;54.58
54459;BME280;40368;49.350;8.152;2023-08-30T01:29:00;994.8;;;21.1;54.45
54459;BME280;40368;49.350;8.152;2023-08-30T01:30:00;994.8;;;21.09;54.68
54459;BME280;40368;49.350;8.152;2023-08-30T01:31:00;994.8;;;21.1;54.56
54459;BME280;40368;49.350;8.152;2023-08-30T01:32:00;994.8;;;21.1;54.51
54459;BME280;40368;49.350;8.152;2023-08-30T01:33:00;994.8;;;21.11;54.46
54459;BME280;40368;49.350;8.152;2023-08-30T01:34:01;994.8;;;21.12;54.59
54459;BME280;40368;49.350;8.152;2023-08-30T01:35:00;994.7;;;21.13;54.42
54459;BME280;40368;49.350;8.152;2023-08-30T01:36:00;994.7;;;21.15;54.49
54459;BME280;40368;49.350;8.152;2023-08-30T01:37:00;994.8;;;21.16;54.35
54459;BME280;40368;49.350;8.152;2023-08-30T01:38:00;994.8;;;21.17;54.65
54459;BME280;40368;49.350;8.152;2023-08-30T01:39:00;994.7;;;21.15;54.28
54459;BME280;40368;49.350;8.152;2023-08-30T01:40:01;994.7;;;21.17;54.33
54459;BME280;40368;49.350;8.152;2023-08-30T01:41:00;994.7;;;21.18;54.48
54459;BME280;40368;49.350;8.152;2023-08-30T01:42:00;994.7;;;21.17;54.38
54459;BME280;40368;49.350;8.152;2023-08-30T01:43:00;994.7;;;21.18;54.38
54459;BME280;40368;49.350;8.152;2023-08-30T01:44:00;994.7;;;21.18;54.49
54459;BME280;40368;49.350;8.152;2023-08-30T01:45:01;994.6;;;21.16;54.46
54459;BME280;40368;49.350;8.152;2023-08-30T01:46:00;994.6;;;21.16;54.26
54459;BME280;40368;49.350;8.152;2023-08-30T01:47:00;994.7;;;21.15;54.43
54459;BME280;40368;49.350;8.152;2023-08-30T01:48:00;994.7;;;21.09;54.94
54459;BME280;40368;49.350;8.152;2023-08-30T01:49:00;994.6;;;21;55.37
54459;BME280;40368;49.350;8.152;2023-08-30T01:50:00;994.7;;;20.94;55.26
54459;BME280;40368;49.350;8.152;2023-08-30T01:51:01;994.6;;;20.89;55.62
54459;BME280;40368;49.350;8.152;2023-08-30T01:52:00;994.7;;;20.84;55.57
54459;BME280;40368;49.350;8.152;2023-08-30T01:53:01;994.6;;;20.83;55.4
54459;BME280;40368;49.350;8.152;2023-08-30T01:54:00;994.7;;;20.86;55.15
54459;BME280;40368;49.350;8.152;2023-08-30T01:55:00;994.7;;;20.9;54.96
54459;BME280;40368;49.350;8.152;2023-08-30T01:56:00;994.7;;;20.93;55.12
54459;BME280;40368;49.350;8.152;2023-08-30T01:57:00;994.6;;;20.97;54.9
54459;BME280;40368;49.350;8.152;2023-08-30T01:58:00;994.7;;;21;54.68
54459;BME280;40368;49.350;8.152;2023-08-30T01:59:00;994.6;;;21.02;54.96
54459;BME280;40368;49.350;8.152;2023-08-30T02:00:00;994.7;;;21.02;54.85
54459;BME280;40368;49.350;8.152;2023-08-30T02:01:00;994.6;;;21.01;54.93
54459;BME280;40368;49.350;8.152;2023-08-30T02:02:00;994.7;;;20.98;55.09
54459;BME280;40368;49.350;8.152;2023-08-30T02:03:06;994.7;;;20.94;55.18
54459;BME280;40368;49.350;8.152;2023-08-30T02:04:00;994.6;;;20.93;55.01
54459;BME280;40368;49.350;8.152;2023-08-30T02:05:01;994.7;;;20.96;54.98
54459;BME280;40368;49.350;8.152;2023-08-30T02:06:11;994.7;;;20.97;54.75
54459;BME280;40368;49.350;8.152;2023-08-30T02:07:02;994.7;;;21;55.1
54459;BME280;40368;49.350;8.152;2023-08-30T02:08:02;994.7;;;21;54.81
54459;BME280;40368;49.350;8.152;2023-08-30T02:09:01;994.7;;;21.02;54.7
54459;BME280;40368;49.350;8.152;2023-08-30T02:10:02;994.7;;;21.04;54.54
54459;BME280;40368;49.350;8.152;2023-08-30T02:11:01;994.7;;;21.05;54.72
54459;BME280;40368;49.350;8.152;2023-08-30T02:12:00;994.7;;;21.06;54.65
54459;BME280;40368;49.350;8.152;2023-08-30T02:13:00;994.7;;;21.05;54.66
54459;BME280;40368;49.350;8.152;2023-08-30T02:14:01;994.7;;;21.05;54.93
54459;BME280;40368;49.350;8.152;2023-08-30T02:15:00;994.7;;;21.03;54.73
54459;BME280;40368;49.350;8.152;2023-08-30T02:16:00;994.7;;;21.03;54.85
54459;BME280;40368;49.350;8.152;2023-08-30T02:17:00;994.7;;;21.02;54.6
54459;BME280;40368;49.350;8.152;2023-08-30T02:18:01;994.7;;;21.04;54.75
54459;BME280;40368;49.350;8.152;2023-08-30T02:19:00;994.7;;;21.04;54.67
54459;BME280;40368;49.350;8.152;2023-08-30T02:20:00;994.7;;;21.04;54.55
54459;BME280;40368;49.350;8.152;2023-08-30T02:21:00;994.7;;;21.05;54.4
54459;BME280;40368;49.350;8.152;2023-08-30T02:22:00;994.7;;;21.07;54.61
54459;BME280;40368;49.350;8.152;2023-08-30T02:23:00;994.8;;;21.07;54.49
54459;BME280;40368;49.350;8.152;2023-08-30T02:24:00;994.7;;;21.05;54.84
54459;BME280;40368;49.350;8.152;2023-08-30T02:25:00;994.7;;;21.02;54.65
54459;BME280;40368;49.350;8.152;2023-08-30T02:26:00;994.7;;;20.97;55.11
54459;BME280;40368;49.350;8.152;2023-08-30T02:27:00;994.7;;;20.92;55.48
54459;BME280;40368;49.350;8.152;2023-08-30T02:28:00;994.7;;;20.86;55.21
54459;BME280;40368;49.350;8.152;2023-08-30T02:29:00;994.7;;;20.87;55.21
54459;BME280;40368;49.350;8.152;2023-08-30T02:30:01;994.6;;;20.88;55.05
54459;BME280;40368;49.350;8.152;2023-08-30T02:31:00;994.6;;;20.88;55.28
54459;BME280;40368;49.350;8.152;2023-08-30T02:32:00;994.6;;;20.87;55.13
54459;BME280;40368;49.350;8.152;2023-08-30T02:33:00;994.6;;;20.86;55.44
54459;BME280;40368;49.350;8.152;2023-08-30T02:34:00;994.6;;;20.85;55.21
54459;BME280;40368;49.350;8.152;2023-08-30T02:35:01;994.6;;;20.84;55.49
54459;BME280;40368;49.350;8.152;2023-08-30T02:36:00;994.6;;;20.83;55.35
54459;BME280;40368;49.350;8.152;2023-08-30T02:37:00;994.6;;;20.83;55.34
54459;BME280;40368;49.350;8.152;2023-08-30T02:38:00;994.6;;;20.83;55.42
54459;BME280;40368;49.350;8.152;2023-08-30T02:39:01;994.6;;;20.84;55.02
54459;BME280;40368;49.350;8.152;2023-08-30T02:40:00;994.6;;;20.87;55.03
54459;BME280;40368;49.350;8.152;2023-08-30T02:41:00;994.5;;;20.89;55.04
54459;BME280;40368;49.350;8.152;2023-08-30T02:42:00;994.6;;;20.89;54.91
54459;BME280;40368;49.350;8.152;2023-08-30T02:43:00;994.6;;;20.88;55.06
54459;BME280;40368;49.350;8.152;2023-08-30T02:44:01;994.6;;;20.88;55.13
54459;BME280;40368;49.350;8.152;2023-08-30T02:45:00;994.5;;;20.88;55.04
54459;BME280;40368;49.350;8.152;2023-08-30T02:46:00;994.6;;;20.85;55.18
54459;BME280;40368;49.350;8.152;2023-08-30T02:47:00;994.6;;;20.85;55
54459;BME280;40368;49.350;8.152;2023-08-30T02:48:00;994.6;;;20.85;55.1
54459;BME280;40368;49.350;8.152;2023-08-30T02:49:00;994.6;;;20.85;55.13
54459;BME280;40368;49.350;8.152;2023-08-30T02:50:00;994.6;;;20.86;54.96
54459;BME280;40368;49.350;8.152;2023-08-30T02:51:00;994.6;;;20.85;55.15
54459;BME280;40368;49.350;8.152;2023-08-30T02:52:00;994.6;;;20.83;55.2
54459;BME280;40368;49.350;8.152;2023-08-30T02:53:00;994.6;;;20.82;55.2
54459;BME280;40368;49.350;8.152;2023-08-30T02:54:00;994.6;;;20.8;55.25
54459;BME280;40368;49.350;8.152;2023-08-30T02:55:01;994.6;;;20.82;55.11
54459;BME280;40368;49.350;8.152;2023-08-30T02:56:00;994.6;;;20.83;55.17
54459;BME280;40368;49.350;8.152;2023-08-30T02:58:01;994.6;;;20.81;55.09
54459;BME280;40368;49.350;8.152;2023-08-30T02:59:00;994.6;;;20.82;55.02
54459;BME280;40368;49.350;8.152;2023-08-30T03:00:01;994.6;;;20.86;54.92
54459;BME280;40368;49.350;8.152;2023-08-30T03:01:00;994.6;;;20.86;55.01
54459;BME280;40368;49.350;8.152;2023-08-30T03:02:00;994.5;;;20.87;54.97
54459;BME280;40368;49.350;8.152;2023-08-30T03:03:00;994.5;;;20.87;54.75
54459;BME280;40368;49.350;8.152;2023-08-30T03:04:01;994.6;;;20.9;54.89
54459;BME280;40368;49.350;8.152;2023-08-30T03:05:00;994.6;;;20.9;54.83
54459;BME280;40368;49.350;8.152;2023-08-30T03:06:00;994.6;;;20.91;54.7
54459;BME280;40368;49.350;8.152;2023-08-30T03:07:00;994.5;;;20.92;54.74
54459;BME280;40368;49.350;8.152;2023-08-30T03:08:00;994.6;;;20.94;54.51
54459;BME280;40368;49.350;8.152;2023-08-30T03:09:00;994.5;;;20.93;54.75
54459;BME280;40368;49.350;8.152;2023-08-30T03:10:01;994.5;;;20.94;54.67
54459;BME280;40368;49.350;8.152;2023-08-30T03:11:07;994.6;;;20.93;54.79
54459;BME280;40368;49.350;8.152;2023-08-30T03:12:00;994.6;;;20.92;54.77
54459;BME280;40368;49.350;8.152;2023-08-30T03:13:00;994.5;;;20.9;54.7
54459;BME280;40368;49.350;8.152;2023-08-30T03:14:01;994.6;;;20.87;54.97
54459;BME280;40368;49.350;8.152;2023-08-30T03:15:00;994.5;;;20.86;55.04
54459;BME280;40368;49.350;8.152;2023-08-30T03:16:00;994.6;;;20.85;55.02
54459;BME280;40368;49.350;8.152;2023-08-30T03:17:01;994.6;;;20.85;54.95
54459;BME280;40368;49.350;8.152;2023-08-30T03:18:00;994.6;;;20.85;55.06
54459;BME280;40368;49.350;8.152;2023-08-30T03:19:00;994.6;;;20.84;54.92
54459;BME280;40368;49.350;8.152;2023-08-30T03:20:00;994.6;;;20.84;55.15
54459;BME280;40368;49.350;8.152;2023-08-30T03:21:01;994.6;;;20.83;55.16
54459;BME280;40368;49.350;8.152;2023-08-30T03:22:00;994.6;;;20.83;54.83
54459;BME280;40368;49.350;8.152;2023-08-30T03:23:00;994.7;;;20.84;55.06
54459;BME280;40368;49.350;8.152;2023-08-30T03:24:01;994.6;;;20.83;54.9
54459;BME280;40368;49.350;8.152;2023-08-30T03:25:00;994.6;;;20.83;54.96
54459;BME280;40368;49.350;8.152;2023-08-30T03:26:06;994.7;;;20.78;55.35
54459;BME280;40368;49.350;8.152;2023-08-30T03:27:00;994.6;;;20.74;55.41
54459;BME280;40368;49.350;8.152;2023-08-30T03:28:01;994.7;;;20.73;55.32
54459;BME280;40368;49.350;8.152;2023-08-30T03:29:00;994.7;;;20.74;55.15
54459;BME280;40368;49.350;8.152;2023-08-30T03:30:00;994.6;;;20.75;55.15
54459;BME280;40368;49.350;8.152;2023-08-30T03:31:00;994.6;;;20.75;55.48
54459;BME280;40368;49.350;8.152;2023-08-30T03:32:00;994.6;;;20.76;55.15
54459;BME280;40368;49.350;8.152;2023-08-30T03:33:00;994.6;;;20.77;55.05
54459;BME280;40368;49.350;8.152;2023-08-30T03:34:01;994.6;;;20.77;55.36
54459;BME280;40368;49.350;8.152;2023-08-30T03:35:00;994.6;;;20.77;55.06
54459;BME280;40368;49.350;8.152;2023-08-30T03:36:01;994.6;;;20.72;55.42
54459;BME280;40368;49.350;8.152;2023-08-30T03:37:00;994.6;;;20.7;55.72
54459;BME280;40368;49.350;8.152;2023-08-30T03:38:00;994.7;;;20.7;55.28
54459;BME280;40368;49.350;8.152;2023-08-30T03:39:00;994.6;;;20.71;55.67
54459;BME280;40368;49.350;8.152;2023-08-30T03:40:00;994.7;;;20.69;55.24
54459;BME280;40368;49.350;8.152;2023-08-30T03:41:00;994.7;;;20.68;55.52
54459;BME280;40368;49.350;8.152;2023-08-30T03:42:00;994.6;;;20.69;55.37
54459;BME280;40368;49.350;8.152;2023-08-30T03:43:00;994.6;;;20.69;55.26
54459;BME280;40368;49.350;8.152;2023-08-30T03:44:01;994.6;;;20.7;55.18
54459;BME280;40368;49.350;8.152;2023-08-30T03:45:00;994.7;;;20.74;55.26
54459;BME280;40368;49.350;8.152;2023-08-30T03:46:00;994.7;;;20.75;55.09
54459;BME280;40368;49.350;8.152;2023-08-30T03:47:00;994.7;;;20.76;55.07
54459;BME280;40368;49.350;8.152;2023-08-30T03:48:01;994.7;;;20.78;55.27
54459;BME280;40368;49.350;8.152;2023-08-30T03:49:00;994.7;;;20.8;55.01
54459;BME280;40368;49.350;8.152;2023-08-30T03:51:00;994.7;;;20.82;54.89
54459;BME280;40368;49.350;8.152;2023-08-30T03:52:00;994.7;;;20.83;55.08
54459;BME280;40368;49.350;8.152;2023-08-30T03:53:00;994.7;;;20.84;55.06
54459;BME280;40368;49.350;8.152;2023-08-30T03:54:00;994.7;;;20.84;55.32
54459;BME280;40368;49.350;8.152;2023-08-30T03:55:00;994.7;;;20.84;55.24
54459;BME280;40368;49.350;8.152;2023-08-30T03:56:00;994.7;;;20.84;55.2
54459;BME280;40368;49.350;8.152;2023-08-30T03:57:00;994.8;;;20.85;55.13
54459;BME280;40368;49.350;8.152;2023-08-30T03:59:00;994.8;;;20.85;55.3
54459;BME280;40368;49.350;8.152;2023-08-30T04:00:01;994.7;;;20.84;55.37
54459;BME280;40368;49.350;8.152;2023-08-30T04:01:00;994.7;;;20.84;55.3
54459;BME280;40368;49.350;8.152;2023-08-30T04:02:00;994.7;;;20.84;55.3
54459;BME280;40368;49.350;8.152;2023-08-30T04:03:00;994.7;;;20.84;55.2
54459;BME280;40368;49.350;8.152;2023-08-30T04:04:01;994.7;;;20.83;55.11
54459;BME280;40368;49.350;8.152;2023-08-30T04:05:01;994.8;;;20.84;55.3
54459;BME280;40368;49.350;8.152;2023-08-30T04:06:00;994.8;;;20.85;55.05
54459;BME280;40368;49.350;8.152;2023-08-30T04:07:01;994.8;;;20.82;55.42
54459;BME280;40368;49.350;8.152;2023-08-30T04:08:00;994.8;;;20.82;55.2
54459;BME280;40368;49.350;8.152;2023-08-30T04:09:00;994.8;;;20.82;55.18
54459;BME280;40368;49.350;8.152;2023-08-30T04:10:00;994.7;;;20.83;55.22
54459;BME280;40368;49.350;8.152;2023-08-30T04:11:01;994.7;;;20.83;55.02
54459;BME280;40368;49.350;8.152;2023-08-30T04:12:00;994.7;;;20.84;55.08
54459;BME280;40368;49.350;8.152;2023-08-30T04:13:01;994.7;;;20.85;54.95
54459;BME280;40368;49.350;8.152;2023-08-30T04:14:01;994.7;;;20.85;54.84
54459;BME280;40368;49.350;8.152;2023-08-30T04:15:00;994.7;;;20.86;54.99
54459;BME280;40368;49.350;8.152;2023-08-30T04:16:00;994.7;;;20.86;54.89
54459;BME280;40368;49.350;8.152;2023-08-30T04:18:01;994.7;;;20.88;54.89
54459;BME280;40368;49.350;8.152;2023-08-30T04:20:00;994.7;;;20.88;54.8
54459;BME280;40368;49.350;8.152;2023-08-30T04:21:00;994.7;;;20.86;54.74
54459;BME280;40368;49.350;8.152;2023-08-30T04:22:01;994.7;;;20.87;54.72
54459;BME280;40368;49.350;8.152;2023-08-30T04:23:00;994.7;;;20.88;54.73
54459;BME280;40368;49.350;8.152;2023-08-30T04:24:00;994.7;;;20.87;54.81
54459;BME280;40368;49.350;8.152;2023-08-30T04:25:00;994.7;;;20.86;54.43
54459;BME280;40368;49.350;8.152;2023-08-30T04:26:00;994.7;;;20.87;54.51
54459;BME280;40368;49.350;8.152;2023-08-30T04:27:00;994.6;;;20.87;54.78
54459;BME280;40368;49.350;8.152;2023-08-30T04:28:01;994.7;;;20.87;54.51
54459;BME280;40368;49.350;8.152;2023-08-30T04:29:00;994.6;;;20.86;54.68
54459;BME280;40368;49.350;8.152;2023-08-30T04:30:01;994.6;;;20.86;54.79
54459;BME280;40368;49.350;8.152;2023-08-30T04:31:01;994.6;;;20.87;54.64
54459;BME280;40368;49.350;8.152;2023-08-30T04:32:00;994.6;;;20.87;54.41
54459;BME280;40368;49.350;8.152;2023-08-30T04:33:00;994.6;;;20.88;54.46
54459;BME280;40368;49.350;8.152;2023-08-30T04:34:00;994.6;;;20.88;54.43
54459;BME280;40368;49.350;8.152;2023-08-30T04:35:00;994.6;;;20.89;54.38
54459;BME280;40368;49.350;8.152;2023-08-30T04:36:00;994.7;;;20.9;54.49
54459;BME280;40368;49.350;8.152;2023-08-30T04:37:00;994.7;;;20.91;54.53
54459;BME280;40368;49.350;8.152;2023-08-30T04:38:00;994.7;;;20.91;54.4
54459;BME280;40368;49.350;8.152;2023-08-30T04:39:00;994.7;;;20.91;54.52
54459;BME280;40368;49.350;8.152;2023-08-30T04:40:00;994.7;;;20.91;54.43
54459;BME280;40368;49.350;8.152;2023-08-30T04:41:00;994.7;;;20.9;54.45
54459;BME280;40368;49.350;8.152;2023-08-30T04:42:00;994.7;;;20.9;54.32
54459;BME280;40368;49.350;8.152;2023-08-30T04:43:01;994.8;;;20.9;54.26
54459;BME280;40368;49.350;8.152;2023-08-30T04:44:00;994.8;;;20.89;54.23
54459;BME280;40368;49.350;8.152;2023-08-30T04:45:00;994.8;;;20.89;54.36
54459;BME280;40368;49.350;8.152;2023-08-30T04:46:01;994.7;;;20.86;54.4
54459;BME280;40368;49.350;8.152;2023-08-30T04:47:00;994.7;;;20.86;54.24
54459;BME280;40368;49.350;8.152;2023-08-30T04:48:00;994.7;;;20.86;54.47
54459;BME280;40368;49.350;8.152;2023-08-30T04:49:01;994.7;;;20.85;54.43
54459;BME280;40368;49.350;8.152;2023-08-30T04:50:00;994.7;;;20.84;54.57
54459;BME280;40368;49.350;8.152;2023-08-30T04:51:00;994.7;;;20.79;54.57
54459;BME280;40368;49.350;8.152;2023-08-30T04:51:59;994.7;;;20.78;54.95
54459;BME280;40368;49.350;8.152;2023-08-30T04:53:01;994.6;;;20.74;54.99
54459;BME280;40368;49.350;8.152;2023-08-30T04:54:00;994.6;;;20.72;55.24
54459;BME280;40368;49.350;8.152;2023-08-30T04:55:00;994.7;;;20.7;54.75
54459;BME280;40368;49.350;8.152;2023-08-30T04:56:00;994.7;;;20.72;54.78
54459;BME280;40368;49.350;8.152;2023-08-30T04:57:00;994.7;;;20.73;54.67
54459;BME280;40368;49.350;8.152;2023-08-30T04:58:00;994.7;;;20.72;54.88
54459;BME280;40368;49.350;8.152;2023-08-30T04:59:01;994.7;;;20.72;54.69
54459;BME280;40368;49.350;8.152;2023-08-30T05:00:00;994.7;;;20.72;54.68
54459;BME280;40368;49.350;8.152;2023-08-30T05:01:00;994.7;;;20.72;54.67
54459;BME280;40368;49.350;8.152;2023-08-30T05:02:00;994.7;;;20.71;54.78
54459;BME280;40368;49.350;8.152;2023-08-30T05:03:00;994.7;;;20.7;54.83
54459;BME280;40368;49.350;8.152;2023-08-30T05:05:00;994.7;;;20.71;54.81
54459;BME280;40368;49.350;8.152;2023-08-30T05:06:00;994.7;;;20.7;54.9
54459;BME280;40368;49.350;8.152;2023-08-30T05:07:00;994.7;;;20.71;54.88
54459;BME280;40368;49.350;8.152;2023-08-30T05:08:01;994.7;;;20.71;54.85
54459;BME280;40368;49.350;8.152;2023-08-30T05:09:01;994.6;;;20.72;54.99
54459;BME280;40368;49.350;8.152;2023-08-30T05:10:01;994.7;;;20.73;54.93
54459;BME280;40368;49.350;8.152;2023-08-30T05:11:00;994.6;;;20.74;54.83
54459;BME280;40368;49.350;8.152;2023-08-30T05:12:00;994.6;;;20.74;54.58
54459;BME280;40368;49.350;8.152;2023-08-30T05:13:01;994.7;;;20.75;54.62
54459;BME280;40368;49.350;8.152;2023-08-30T05:14:00;994.7;;;20.73;54.8
54459;BME280;40368;49.350;8.152;2023-08-30T05:15:00;994.7;;;20.71;54.76
54459;BME280;40368;49.350;8.152;2023-08-30T05:16:00;994.7;;;20.7;54.93
54459;BME280;40368;49.350;8.152;2023-08-30T05:17:00;994.7;;;20.68;54.91
54459;BME280;40368;49.350;8.152;2023-08-30T05:18:00;994.7;;;20.68;54.76
54459;BME280;40368;49.350;8.152;2023-08-30T05:19:00;994.7;;;20.68;54.75
54459;BME280;40368;49.350;8.152;2023-08-30T05:20:01;994.6;;;20.69;54.88
54459;BME280;40368;49.350;8.152;2023-08-30T05:21:00;994.6;;;20.7;55.03
54459;BME280;40368;49.350;8.152;2023-08-30T05:22:00;994.6;;;20.7;55.1
54459;BME280;40368;49.350;8.152;2023-08-30T05:23:00;994.7;;;20.72;55.05
54459;BME280;40368;49.350;8.152;2023-08-30T05:24:00;994.7;;;20.72;55.08
54459;BME280;40368;49.350;8.152;2023-08-30T05:25:00;994.6;;;20.72;54.91
54459;BME280;40368;49.350;8.152;2023-08-30T05:26:00;994.7;;;20.73;55
54459;BME280;40368;49.350;8.152;2023-08-30T05:27:00;994.7;;;20.73;55.07
54459;BME280;40368;49.350;8.152;2023-08-30T05:28:01;994.7;;;20.73;54.96
54459;BME280;40368;49.350;8.152;2023-08-30T05:29:01;994.7;;;20.72;55.07
54459;BME280;40368;49.350;8.152;2023-08-30T05:30:00;994.7;;;20.7;55.13
54459;BME280;40368;49.350;8.152;2023-08-30T05:31:00;994.7;;;20.71;55.1
54459;BME280;40368;49.350;8.152;2023-08-30T05:32:00;994.6;;;20.71;54.98
54459;BME280;40368;49.350;8.152;2023-08-30T05:33:00;994.7;;;20.71;55.24
54459;BME280;40368;49.350;8.152;2023-08-30T05:34:00;994.7;;;20.71;55.12
54459;BME280;40368;49.350;8.152;2023-08-30T05:35:00;994.6;;;20.71;55.26
54459;BME280;40368;49.350;8.152;2023-08-30T05:36:00;994.6;;;20.7;55.22
54459;BME280;40368;49.350;8.152;2023-08-30T05:37:00;994.7;;;20.7;55.04
54459;BME280;40368;49.350;8.152;2023-08-30T05:38:00;994.7;;;20.71;54.97
54459;BME280;40368;49.350;8.152;2023-08-30T05:39:00;994.6;;;20.71;54.96